Time;durP1;ratioP1;P1;durP2;ratioP2;P2;SDS_P1;SDS_P2;PMS_P1;PMS_P2;Temp;Humidity;BMP_temperature;BMP_pressure;BME280_temperature;BME280_humidity;BME280_pressure;Samples;Min_cycle;Max_cycle;Signal;HPM_P1;HPM_P2
2021/03/08 00:00:26;;;;;;;4.00;2.10;;;;;;;;;;5073264;28;20124;-55
2021/03/08 00:02:54;;;;;;;6.23;2.07;;;;;;;;;;5073329;28;20024;-55
2021/03/08 00:05:21;;;;;;;5.33;2.10;;;;;;;;;;5073622;28;20063;-55
2021/03/08 00:07:48;;;;;;;4.40;2.40;;;;;;;;;;5073577;28;20024;-55
2021/03/08 00:10:15;;;;;;;9.07;2.20;;;;;;;;;;5073531;28;20118;-55
2021/03/08 00:12:55;;;;;;;4.30;2.20;;;;;;;;;;5073063;28;20093;-55
2021/03/08 00:15:22;;;;;;;6.53;2.30;;;;;;;;;;5073140;28;20067;-56
2021/03/08 00:17:50;;;;;;;6.90;2.10;;;;;;;;;;5073111;28;20032;-55
2021/03/08 00:20:21;;;;;;;4.47;2.20;;;;;;;;;;5073038;28;20124;-55
2021/03/08 00:22:48;;;;;;;6.60;1.80;;;;;;;;;;5073414;28;20107;-55
2021/03/08 00:25:19;;;;;;;7.93;1.80;;;;;;;;;;5073071;28;20047;-55
2021/03/08 00:27:46;;;;;;;5.87;1.97;;;;;;;;;;5071772;28;20028;-55
2021/03/08 00:30:13;;;;;;;6.83;2.10;;;;;;;;;;5073031;28;20052;-55
2021/03/08 00:32:48;;;;;;;7.23;1.73;;;;;;;;;;5072985;28;20518;-56
2021/03/08 00:35:15;;;;;;;2.40;1.50;;;;;;;;;;5073292;28;20112;-55
2021/03/08 00:37:42;;;;;;;5.97;1.97;;;;;;;;;;5072820;28;20059;-55
2021/03/08 00:40:10;;;;;;;3.60;2.00;;;;;;;;;;5072795;28;20040;-55
2021/03/08 00:42:37;;;;;;;4.10;1.70;;;;;;;;;;5072633;28;20387;-55
2021/03/08 00:45:09;;;;;;;3.10;1.70;;;;;;;;;;5072775;28;20398;-55
2021/03/08 00:47:36;;;;;;;2.93;1.50;;;;;;;;;;5072781;28;20024;-55
2021/03/08 00:50:03;;;;;;;11.53;3.33;;;;;;;;;;5072783;28;20029;-55
2021/03/08 00:52:30;;;;;;;4.23;2.00;;;;;;;;;;5072849;28;20028;-55
2021/03/08 00:54:57;;;;;;;3.00;1.73;;;;;;;;;;5072718;28;20127;-55
2021/03/08 00:57:24;;;;;;;5.20;2.00;;;;;;;;;;5072688;28;20036;-55
2021/03/08 00:59:50;;;;;;;3.27;1.77;;;;;;;;;;5072509;28;20114;-55
2021/03/08 01:02:17;;;;;;;4.73;1.77;;;;;;;;;;5072703;28;20024;-55
2021/03/08 01:04:58;;;;;;;4.87;2.07;;;;;;;;;;5075235;28;20045;-56
2021/03/08 01:07:25;;;;;;;5.77;2.10;;;;;;;;;;5076575;28;20040;-55
2021/03/08 01:09:52;;;;;;;7.73;2.07;;;;;;;;;;5076536;28;20025;-55
2021/03/08 01:12:19;;;;;;;2.87;1.80;;;;;;;;;;5076695;28;20029;-55
2021/03/08 01:14:46;;;;;;;3.10;1.97;;;;;;;;;;5076459;28;20040;-55
2021/03/08 01:17:13;;;;;;;4.30;2.30;;;;;;;;;;5076465;28;20483;-55
2021/03/08 01:19:39;;;;;;;7.70;2.57;;;;;;;;;;5076596;28;20097;-55
2021/03/08 01:22:06;;;;;;;6.63;2.20;;;;;;;;;;5076344;28;20059;-55
2021/03/08 01:24:33;;;;;;;4.27;2.10;;;;;;;;;;5076356;28;20024;-55
2021/03/08 01:27:00;;;;;;;7.40;1.90;;;;;;;;;;5076331;28;20036;-55
2021/03/08 01:29:27;;;;;;;3.23;1.77;;;;;;;;;;5076191;28;20051;-55
2021/03/08 01:31:53;;;;;;;3.33;1.83;;;;;;;;;;5076176;28;20032;-55
2021/03/08 01:34:20;;;;;;;7.40;1.67;;;;;;;;;;5076085;28;20020;-55
2021/03/08 01:36:47;;;;;;;3.03;1.70;;;;;;;;;;5076123;28;20033;-55
2021/03/08 01:39:14;;;;;;;4.07;1.90;;;;;;;;;;5075880;28;20364;-55
2021/03/08 01:41:41;;;;;;;3.57;2.07;;;;;;;;;;5075856;28;20054;-55
2021/03/08 01:44:08;;;;;;;4.33;1.67;;;;;;;;;;5075803;28;20095;-55
2021/03/08 01:46:34;;;;;;;3.70;1.83;;;;;;;;;;5075777;28;20024;-55
2021/03/08 01:49:01;;;;;;;3.10;1.77;;;;;;;;;;5075766;28;20029;-55
2021/03/08 01:51:28;;;;;;;4.90;1.30;;;;;;;;;;5075863;28;20024;-55
2021/03/08 01:53:55;;;;;;;7.37;1.50;;;;;;;;;;5075689;28;20062;-55
2021/03/08 01:56:22;;;;;;;3.43;1.60;;;;;;;;;;5075694;28;20021;-55
2021/03/08 01:58:49;;;;;;;7.70;1.80;;;;;;;;;;5075145;28;20037;-55
2021/03/08 02:01:15;;;;;;;4.27;2.17;;;;;;;;;;5075638;28;20386;-54
2021/03/08 02:03:42;;;;;;;7.47;1.90;;;;;;;;;;5075326;28;20028;-55
2021/03/08 02:06:09;;;;;;;3.83;2.00;;;;;;;;;;5076016;28;20414;-55
2021/03/08 02:08:38;;;;;;;7.07;2.40;;;;;;;;;;5075657;28;20024;-54
2021/03/08 02:11:05;;;;;;;4.67;2.20;;;;;;;;;;5075513;28;20024;-54
2021/03/08 02:13:31;;;;;;;3.70;2.07;;;;;;;;;;5075285;28;20069;-54
2021/03/08 02:16:34;;;;;;;7.20;1.97;;;;;;;;;;5074097;28;20037;-54
2021/03/08 02:19:04;;;;;;;5.30;2.10;;;;;;;;;;4993585;28;20101;-54
2021/03/08 02:21:49;;;;;;;6.63;2.07;;;;;;;;;;5061540;28;20380;-54
2021/03/08 02:24:16;;;;;;;;;;;;;;;;;;5075543;28;20028;-54
2021/03/08 02:26:48;;;;;;;3.33;1.83;;;;;;;;;;5075104;28;20373;-55
2021/03/08 02:29:30;;;;;;;4.50;1.80;;;;;;;;;;5075061;28;20024;-54
2021/03/08 02:31:58;;;;;;;3.17;1.77;;;;;;;;;;5075107;28;20027;-54
2021/03/08 02:34:28;;;;;;;4.40;1.83;;;;;;;;;;5074909;28;20036;-54
2021/03/08 02:37:02;;;;;;;8.10;1.73;;;;;;;;;;5075044;28;20024;-54
2021/03/08 02:39:31;;;;;;;5.82;1.60;;;;;;;;;;5075100;28;20028;-54
2021/03/08 02:41:58;;;;;;;4.63;1.57;;;;;;;;;;5074990;28;20197;-53
2021/03/08 02:44:29;;;;;;;6.23;1.50;;;;;;;;;;5075012;28;20030;-54
2021/03/08 02:46:57;;;;;;;6.67;2.03;;;;;;;;;;5074848;28;20414;-54
2021/03/08 02:49:25;;;;;;;3.43;1.73;;;;;;;;;;5074771;28;20028;-54
2021/03/08 02:52:09;;;;;;;6.57;2.10;;;;;;;;;;5074535;28;20419;-54
2021/03/08 02:54:38;;;;;;;5.40;2.57;;;;;;;;;;5074403;28;20017;-54
2021/03/08 02:57:08;;;;;;;5.27;1.90;;;;;;;;;;5074297;28;20032;-54
2021/03/08 02:59:40;;;;;;;7.00;2.40;;;;;;;;;;5074382;28;20016;-54
2021/03/08 03:02:07;;;;;;;5.40;2.37;;;;;;;;;;5074416;28;20033;-54
2021/03/08 03:04:35;;;;;;;6.43;2.50;;;;;;;;;;5074182;28;20023;-54
2021/03/08 03:07:02;;;;;;;6.43;1.97;;;;;;;;;;5074787;28;20032;-54
2021/03/08 03:09:29;;;;;;;5.80;2.70;;;;;;;;;;5074471;28;20028;-54
2021/03/08 03:11:58;;;;;;;5.17;2.20;;;;;;;;;;5074280;28;20025;-54
2021/03/08 03:14:25;;;;;;;4.70;1.93;;;;;;;;;;5074089;28;20494;-54
2021/03/08 03:16:54;;;;;;;3.00;1.63;;;;;;;;;;5074189;28;20024;-54
2021/03/08 03:19:22;;;;;;;8.30;2.07;;;;;;;;;;5074022;28;20103;-54
2021/03/08 03:21:50;;;;;;;6.30;1.50;;;;;;;;;;5074109;28;20021;-54
2021/03/08 03:24:17;;;;;;;7.23;1.60;;;;;;;;;;5073943;28;20032;-54
2021/03/08 03:26:44;;;;;;;2.97;1.17;;;;;;;;;;5073765;28;20021;-54
2021/03/08 03:29:11;;;;;;;4.70;1.40;;;;;;;;;;5073865;28;20364;-54
2021/03/08 03:31:40;;;;;;;3.13;1.20;;;;;;;;;;5073804;28;20036;-54
2021/03/08 03:34:07;;;;;;;2.23;1.20;;;;;;;;;;5073781;28;20020;-54
2021/03/08 03:36:35;;;;;;;2.67;1.17;;;;;;;;;;5073800;28;20441;-54
2021/03/08 03:39:04;;;;;;;2.57;1.20;;;;;;;;;;5073685;28;20131;-54
2021/03/08 03:41:31;;;;;;;2.47;1.20;;;;;;;;;;5073660;28;20111;-54
2021/03/08 03:43:58;;;;;;;3.23;1.20;;;;;;;;;;5073611;28;20423;-54
2021/03/08 03:46:25;;;;;;;2.47;1.13;;;;;;;;;;5073768;28;20070;-54
2021/03/08 03:48:51;;;;;;;9.77;1.37;;;;;;;;;;5073582;28;20027;-54
2021/03/08 03:51:18;;;;;;;2.97;1.40;;;;;;;;;;5073512;28;20085;-54
2021/03/08 03:53:45;;;;;;;2.53;1.30;;;;;;;;;;5073504;28;20024;-54
2021/03/08 03:56:13;;;;;;;3.00;1.33;;;;;;;;;;5073429;28;20383;-53
2021/03/08 03:59:02;;;;;;;5.27;1.40;;;;;;;;;;5073435;28;20021;-54
2021/03/08 04:01:35;;;;;;;6.17;1.10;;;;;;;;;;5073272;28;20051;-54
2021/03/08 04:04:04;;;;;;;2.73;1.10;;;;;;;;;;5073105;28;20031;-54
2021/03/08 04:06:38;;;;;;;4.73;1.40;;;;;;;;;;5072764;28;20053;-54
2021/03/08 04:09:05;;;;;;;5.83;1.47;;;;;;;;;;5073283;28;20099;-54
2021/03/08 04:11:33;;;;;;;4.30;1.27;;;;;;;;;;5073444;28;20423;-54
2021/03/08 04:14:01;;;;;;;5.07;1.30;;;;;;;;;;5073108;28;20024;-54
2021/03/08 04:16:30;;;;;;;2.53;1.33;;;;;;;;;;5073127;28;20407;-54
2021/03/08 04:18:58;;;;;;;4.53;1.40;;;;;;;;;;5073099;28;20103;-54
2021/03/08 04:21:26;;;;;;;5.70;1.47;;;;;;;;;;5073114;28;20033;-54
2021/03/08 04:23:54;;;;;;;9.00;1.30;;;;;;;;;;5073065;28;20016;-54
2021/03/08 04:26:22;;;;;;;3.33;1.40;;;;;;;;;;5073010;28;20039;-54
2021/03/08 04:28:49;;;;;;;3.53;1.47;;;;;;;;;;5073018;28;20541;-54
2021/03/08 04:31:17;;;;;;;2.47;1.27;;;;;;;;;;5072867;28;20027;-54
2021/03/08 04:33:45;;;;;;;2.67;1.13;;;;;;;;;;5072816;28;20107;-54
2021/03/08 04:36:13;;;;;;;6.80;2.03;;;;;;;;;;5073061;28;20024;-54
2021/03/08 04:38:41;;;;;;;3.80;1.70;;;;;;;;;;5072102;28;20021;-54
2021/03/08 04:41:08;;;;;;;9.37;1.67;;;;;;;;;;5072724;28;20037;-54
2021/03/08 04:43:35;;;;;;;5.50;1.80;;;;;;;;;;5072847;28;20059;-54
2021/03/08 04:46:02;;;;;;;2.53;1.43;;;;;;;;;;5072862;28;20475;-54
2021/03/08 04:48:29;;;;;;;2.90;1.10;;;;;;;;;;5072785;28;20143;-54
2021/03/08 04:50:57;;;;;;;6.70;1.67;;;;;;;;;;5072695;28;20028;-54
2021/03/08 04:53:24;;;;;;;2.80;1.23;;;;;;;;;;5072691;28;20021;-54
2021/03/08 04:55:53;;;;;;;6.70;1.40;;;;;;;;;;5072763;28;20039;-54
2021/03/08 04:58:19;;;;;;;5.90;1.37;;;;;;;;;;5072713;28;20422;-54
2021/03/08 05:00:46;;;;;;;6.30;1.70;;;;;;;;;;5072615;28;20110;-54
2021/03/08 05:03:14;;;;;;;6.90;1.50;;;;;;;;;;5072455;28;20025;-54
2021/03/08 05:05:42;;;;;;;4.37;1.60;;;;;;;;;;5073020;28;20052;-54
2021/03/08 05:08:11;;;;;;;3.63;1.70;;;;;;;;;;5072624;28;20028;-54
2021/03/08 05:10:38;;;;;;;2.73;1.27;;;;;;;;;;5072561;28;20424;-53
2021/03/08 05:13:09;;;;;;;5.30;3.30;;;;;;;;;;5072478;28;20056;-54
2021/03/08 05:15:37;;;;;;;3.37;1.47;;;;;;;;;;5072518;28;20488;-53
2021/03/08 05:18:05;;;;;;;4.50;1.47;;;;;;;;;;5072487;28;20031;-54
2021/03/08 05:20:32;;;;;;;4.67;1.17;;;;;;;;;;5072371;28;20056;-54
2021/03/08 05:23:00;;;;;;;3.47;1.70;;;;;;;;;;5072443;28;20502;-54
2021/03/08 05:25:27;;;;;;;2.93;1.23;;;;;;;;;;5072400;28;20035;-54
2021/03/08 05:27:54;;;;;;;2.63;1.40;;;;;;;;;;5072485;28;20020;-54
2021/03/08 05:30:22;;;;;;;2.23;1.40;;;;;;;;;;5072285;28;20032;-54
2021/03/08 05:32:49;;;;;;;1.43;0.93;;;;;;;;;;5072394;28;20029;-54
2021/03/08 05:35:16;;;;;;;8.47;1.60;;;;;;;;;;5072180;28;20167;-54
2021/03/08 05:37:44;;;;;;;2.47;1.20;;;;;;;;;;5072430;28;20067;-54
2021/03/08 05:40:22;;;;;;;3.37;1.37;;;;;;;;;;5072272;28;20055;-54
2021/03/08 05:42:53;;;;;;;5.27;1.50;;;;;;;;;;5072226;28;20028;-53
2021/03/08 05:45:20;;;;;;;3.63;1.57;;;;;;;;;;5072068;28;20032;-54
2021/03/08 05:47:56;;;;;;;2.80;1.30;;;;;;;;;;5072318;28;20067;-54
2021/03/08 05:50:41;;;;;;;5.43;1.50;;;;;;;;;;5074569;28;20032;-54
2021/03/08 05:53:33;;;;;;;2.65;1.33;;;;;;;;;;5075818;28;20111;-53
2021/03/08 05:56:04;;;;;;;6.27;1.70;;;;;;;;;;5075729;28;20387;-54
2021/03/08 05:59:00;;;;;;;4.87;1.60;;;;;;;;;;5075813;28;20020;-53
2021/03/08 06:01:27;;;;;;;;;;;;;;;;;;5004838;28;20046;-53
2021/03/08 06:04:12;;;;;;;1.70;0.93;;;;;;;;;;5075563;28;19958;-53
2021/03/08 06:06:38;;;;;;;4.97;1.77;;;;;;;;;;5075950;28;20044;-53
2021/03/08 06:09:21;;;;;;;2.50;1.37;;;;;;;;;;5075636;28;20024;-54
2021/03/08 06:11:52;;;;;;;6.27;1.47;;;;;;;;;;5075490;28;20020;-53
2021/03/08 06:14:21;;;;;;;5.60;1.50;;;;;;;;;;5075310;28;20027;-53
2021/03/08 06:16:48;;;;;;;4.10;0.87;;;;;;;;;;5075472;28;20028;-53
2021/03/08 06:19:15;;;;;;;2.13;1.30;;;;;;;;;;5075227;28;20033;-53
2021/03/08 06:21:42;;;;;;;4.30;1.53;;;;;;;;;;5075347;28;20033;-53
2021/03/08 06:24:11;;;;;;;2.93;1.50;;;;;;;;;;5075182;28;20033;-53
2021/03/08 06:26:38;;;;;;;3.47;1.60;;;;;;;;;;5075270;28;20039;-54
2021/03/08 06:29:08;;;;;;;7.43;2.03;;;;;;;;;;5075191;28;20036;-53
2021/03/08 06:31:36;;;;;;;2.43;1.20;;;;;;;;;;5075140;28;20036;-53
2021/03/08 06:34:03;;;;;;;2.03;1.10;;;;;;;;;;5075292;28;20241;-53
2021/03/08 06:36:33;;;;;;;3.63;1.50;;;;;;;;;;5075128;28;20502;-53
2021/03/08 06:39:00;;;;;;;6.13;1.60;;;;;;;;;;5075013;28;20027;-53
2021/03/08 06:41:27;;;;;;;2.27;1.10;;;;;;;;;;5074936;28;20482;-53
2021/03/08 06:43:53;;;;;;;4.33;1.20;;;;;;;;;;5075101;28;20332;-53
2021/03/08 06:46:20;;;;;;;2.83;1.50;;;;;;;;;;5074809;28;20261;-53
2021/03/08 06:48:47;;;;;;;4.67;1.27;;;;;;;;;;5075132;28;20245;-53
2021/03/08 06:51:15;;;;;;;5.13;1.37;;;;;;;;;;5074712;28;20032;-53
2021/03/08 06:53:42;;;;;;;4.13;1.50;;;;;;;;;;5074650;28;20253;-53
2021/03/08 06:56:13;;;;;;;4.10;1.53;;;;;;;;;;5074697;28;20272;-53
2021/03/08 06:58:39;;;;;;;5.37;1.77;;;;;;;;;;5074659;28;20253;-53
2021/03/08 07:01:27;;;;;;;2.37;1.37;;;;;;;;;;5073870;28;20317;-53
2021/03/08 07:03:54;;;;;;;3.17;1.30;;;;;;;;;;5074387;28;20299;-53
2021/03/08 07:06:21;;;;;;;3.83;1.60;;;;;;;;;;5075002;28;20350;-53
2021/03/08 07:08:48;;;;;;;3.37;1.40;;;;;;;;;;5074486;28;20260;-53
2021/03/08 07:11:16;;;;;;;6.50;2.90;;;;;;;;;;5074293;28;20306;-53
2021/03/08 07:13:43;;;;;;;3.83;1.43;;;;;;;;;;5074129;28;20281;-53
2021/03/08 07:16:10;;;;;;;7.67;1.77;;;;;;;;;;5074074;28;20261;-53
2021/03/08 07:18:37;;;;;;;4.13;1.70;;;;;;;;;;5074075;28;20283;-53
2021/03/08 07:21:13;;;;;;;4.30;1.80;;;;;;;;;;5074004;28;20359;-53
2021/03/08 07:23:43;;;;;;;3.63;2.00;;;;;;;;;;5074107;28;20268;-53
2021/03/08 07:26:11;;;;;;;3.97;1.60;;;;;;;;;;5073962;28;20253;-53
2021/03/08 07:28:38;;;;;;;6.40;1.43;;;;;;;;;;5073998;28;20352;-53
2021/03/08 07:31:06;;;;;;;3.23;1.70;;;;;;;;;;5074046;28;20254;-53
2021/03/08 07:33:33;;;;;;;3.83;1.77;;;;;;;;;;5073790;28;20293;-53
2021/03/08 07:36:00;;;;;;;6.40;1.53;;;;;;;;;;5074088;28;20758;-53
2021/03/08 07:38:30;;;;;;;2.90;1.53;;;;;;;;;;5073659;28;20259;-53
2021/03/08 07:41:13;;;;;;;5.03;1.80;;;;;;;;;;5073609;28;20281;-53
2021/03/08 07:43:41;;;;;;;3.07;1.67;;;;;;;;;;5073613;28;20257;-53
2021/03/08 07:46:26;;;;;;;4.90;1.93;;;;;;;;;;5073986;28;20662;-53
2021/03/08 07:48:52;;;;;;;4.55;1.70;;;;;;;;;;5073650;28;20283;-53
2021/03/08 07:51:19;;;;;;;3.67;1.70;;;;;;;;;;5073612;28;20031;-53
2021/03/08 07:53:46;;;;;;;2.80;1.50;;;;;;;;;;5073433;28;20280;-53
2021/03/08 07:56:13;;;;;;;5.90;1.97;;;;;;;;;;5073396;28;20268;-53
2021/03/08 07:58:40;;;;;;;4.07;1.77;;;;;;;;;;5073356;28;20280;-53
2021/03/08 08:01:07;;;;;;;3.63;2.20;;;;;;;;;;5073361;28;20658;-53
2021/03/08 08:03:38;;;;;;;3.80;2.00;;;;;;;;;;5073303;28;20294;-53
2021/03/08 08:06:06;;;;;;;3.83;1.70;;;;;;;;;;5073268;28;20281;-53
2021/03/08 08:08:34;;;;;;;3.93;2.13;;;;;;;;;;5073361;28;20294;-53
2021/03/08 08:11:02;;;;;;;3.50;2.00;;;;;;;;;;5073187;28;20257;-53
2021/03/08 08:13:36;;;;;;;3.70;1.60;;;;;;;;;;5072296;28;20257;-53
2021/03/08 08:16:12;;;;;;;4.80;2.00;;;;;;;;;;5073148;28;20250;-53
2021/03/08 08:18:41;;;;;;;2.90;1.70;;;;;;;;;;5073180;28;20024;-53
2021/03/08 08:21:10;;;;;;;4.80;1.70;;;;;;;;;;5073063;28;20285;-53
2021/03/08 08:23:39;;;;;;;5.97;1.60;;;;;;;;;;5073056;28;20249;-53
2021/03/08 08:26:10;;;;;;;6.53;1.90;;;;;;;;;;5073031;28;20264;-53
2021/03/08 08:28:38;;;;;;;3.93;1.60;;;;;;;;;;5072980;28;20245;-53
2021/03/08 08:31:05;;;;;;;3.80;1.93;;;;;;;;;;5073038;28;20272;-53
2021/03/08 08:33:33;;;;;;;2.83;1.53;;;;;;;;;;5072874;28;20386;-53
2021/03/08 08:36:10;;;;;;;4.20;1.83;;;;;;;;;;5072865;28;20739;-53
2021/03/08 08:38:59;;;;;;;5.17;2.00;;;;;;;;;;5073163;28;20300;-53
2021/03/08 08:41:28;;;;;;;4.10;2.10;;;;;;;;;;5072523;28;20330;-53
2021/03/08 08:44:18;;;;;;;4.77;1.90;;;;;;;;;;5072873;28;20322;-53
2021/03/08 08:46:52;;;;;;;5.50;1.77;;;;;;;;;;5062451;28;20272;-53
2021/03/08 08:49:19;;;;;;;4.50;1.80;;;;;;;;;;5072803;28;20268;-53
2021/03/08 08:51:50;;;;;;;3.03;1.70;;;;;;;;;;5072775;28;20250;-53
2021/03/08 08:54:30;;;;;;;7.17;2.20;;;;;;;;;;5072686;28;20245;-53
2021/03/08 08:57:12;;;;;;;7.57;1.90;;;;;;;;;;5072754;28;20241;-53
2021/03/08 08:59:48;;;;;;;4.27;2.03;;;;;;;;;;5072667;28;20356;-53
2021/03/08 09:02:23;;;;;;;3.30;2.30;;;;;;;;;;5072569;28;20333;-53
2021/03/08 09:04:50;;;;;;;;;;;;;;;;;;5073326;28;20291;-54
2021/03/08 09:07:23;;;;;;;3.60;1.80;;;;;;;;;;5072384;28;20378;-53
2021/03/08 09:09:50;;;;;;;5.90;2.10;;;;;;;;;;5072518;28;20310;-53
2021/03/08 09:12:31;;;;;;;2.63;1.53;;;;;;;;;;5072606;28;20654;-53
2021/03/08 09:15:03;;;;;;;5.57;2.20;;;;;;;;;;5072416;28;20658;-53
2021/03/08 09:17:31;;;;;;;3.83;2.23;;;;;;;;;;5072781;28;20337;-53
2021/03/08 09:19:58;;;;;;;5.47;2.33;;;;;;;;;;5072479;28;20265;-53
2021/03/08 09:22:25;;;;;;;4.53;2.10;;;;;;;;;;5072470;28;20611;-53
2021/03/08 09:24:54;;;;;;;3.67;2.03;;;;;;;;;;5074072;28;20281;-53
2021/03/08 09:27:25;;;;;;;4.87;1.90;;;;;;;;;;5076332;28;20249;-53
2021/03/08 09:29:53;;;;;;;3.63;1.90;;;;;;;;;;5076339;28;20253;-53
2021/03/08 09:32:20;;;;;;;4.83;1.60;;;;;;;;;;5076173;28;20246;-53
2021/03/08 09:34:47;;;;;;;3.03;1.67;;;;;;;;;;5076103;28;20268;-53
2021/03/08 09:37:14;;;;;;;3.13;2.10;;;;;;;;;;5076259;28;20249;-53
2021/03/08 09:39:51;;;;;;;3.97;2.17;;;;;;;;;;5075979;28;20313;-53
2021/03/08 09:42:18;;;;;;;3.73;1.90;;;;;;;;;;5076043;28;20253;-53
2021/03/08 09:44:46;;;;;;;4.63;2.17;;;;;;;;;;5076004;28;20261;-53
2021/03/08 09:47:13;;;;;;;4.27;2.33;;;;;;;;;;5074989;28;20265;-53
2021/03/08 09:49:46;;;;;;;4.07;1.97;;;;;;;;;;5075794;28;20260;-53
2021/03/08 09:52:13;;;;;;;5.20;1.93;;;;;;;;;;5075838;28;20269;-53
2021/03/08 09:54:49;;;;;;;4.73;2.10;;;;;;;;;;5075680;28;20671;-53
2021/03/08 09:57:35;;;;;;;3.00;1.60;;;;;;;;;;5075714;28;20265;-53
2021/03/08 10:00:07;;;;;;;3.70;1.87;;;;;;;;;;5075914;28;20678;-53
2021/03/08 10:02:34;;;;;;;4.10;2.00;;;;;;;;;;5075690;28;20261;-53
2021/03/08 10:05:01;;;;;;;6.27;2.10;;;;;;;;;;5075518;28;20771;-53
2021/03/08 10:07:28;;;;;;;4.80;2.20;;;;;;;;;;5075510;28;20300;-53
2021/03/08 10:10:08;;;;;;;3.20;2.10;;;;;;;;;;5075564;28;20254;-53
2021/03/08 10:12:35;;;;;;;3.43;2.07;;;;;;;;;;5075603;28;20268;-53
2021/03/08 10:15:03;;;;;;;7.67;2.87;;;;;;;;;;5075319;28;20254;-53
2021/03/08 10:17:29;;;;;;;3.77;2.30;;;;;;;;;;5075430;28;20253;-53
2021/03/08 10:19:57;;;;;;;6.63;2.60;;;;;;;;;;5075237;28;20281;-53
2021/03/08 10:22:36;;;;;;;6.77;2.43;;;;;;;;;;5075385;28;20261;-53
2021/03/08 10:25:23;;;;;;;3.70;1.97;;;;;;;;;;5075364;28;20768;-53
2021/03/08 10:27:58;;;;;;;4.33;2.43;;;;;;;;;;5075270;28;20257;-53
2021/03/08 10:30:26;;;;;;;4.45;2.13;;;;;;;;;;5075154;28;20246;-53
2021/03/08 10:32:54;;;;;;;4.17;2.40;;;;;;;;;;5075055;28;20032;-53
2021/03/08 10:35:22;;;;;;;3.77;2.13;;;;;;;;;;5074722;28;20307;-53
2021/03/08 10:37:49;;;;;;;3.80;2.33;;;;;;;;;;5074443;28;20253;-53
2021/03/08 10:40:19;;;;;;;7.83;2.70;;;;;;;;;;5074983;28;20284;-53
2021/03/08 10:42:46;;;;;;;5.70;2.53;;;;;;;;;;5074854;28;20260;-53
2021/03/08 10:45:13;;;;;;;5.63;2.37;;;;;;;;;;5074936;28;20325;-53
2021/03/08 10:47:40;;;;;;;4.37;2.33;;;;;;;;;;5074933;28;20250;-53
2021/03/08 10:50:07;;;;;;;3.93;2.10;;;;;;;;;;5074721;28;20252;-53
2021/03/08 10:52:34;;;;;;;5.87;2.40;;;;;;;;;;5074814;28;20273;-53
2021/03/08 10:55:01;;;;;;;4.03;2.20;;;;;;;;;;5074673;28;20272;-53
2021/03/08 10:57:28;;;;;;;4.23;2.13;;;;;;;;;;5074520;28;20253;-53
2021/03/08 10:59:57;;;;;;;4.83;2.47;;;;;;;;;;5074502;28;20280;-53
2021/03/08 11:02:25;;;;;;;4.00;2.00;;;;;;;;;;5074545;28;20264;-53
2021/03/08 11:04:53;;;;;;;5.93;2.10;;;;;;;;;;5074473;28;20238;-53
2021/03/08 11:07:34;;;;;;;5.30;2.20;;;;;;;;;;5074926;28;20289;-53
2021/03/08 11:10:01;;;;;;;6.73;2.20;;;;;;;;;;5074773;28;20249;-53
2021/03/08 11:12:28;;;;;;;5.27;2.33;;;;;;;;;;5074335;28;20262;-53
2021/03/08 11:14:56;;;;;;;3.63;2.00;;;;;;;;;;5074187;28;20249;-53
2021/03/08 11:17:33;;;;;;;5.70;2.00;;;;;;;;;;5074360;28;20258;-53
2021/03/08 11:20:13;;;;;;;3.90;1.83;;;;;;;;;;5074139;28;20273;-53
2021/03/08 11:22:50;;;;;;;3.33;2.00;;;;;;;;;;5074105;28;20261;-53
2021/03/08 11:25:26;;;;;;;5.23;2.60;;;;;;;;;;5074107;28;20233;-53
2021/03/08 11:27:55;;;;;;;9.07;2.37;;;;;;;;;;5074078;28;20332;-53
2021/03/08 11:30:22;;;;;;;4.60;1.67;;;;;;;;;;5073933;28;20250;-53
2021/03/08 11:32:52;;;;;;;3.60;2.40;;;;;;;;;;5073848;28;20257;-53
2021/03/08 11:35:24;;;;;;;4.03;2.20;;;;;;;;;;5073840;28;20285;-53
2021/03/08 11:37:52;;;;;;;8.60;2.30;;;;;;;;;;5073879;28;20245;-53
2021/03/08 11:40:22;;;;;;;5.83;2.57;;;;;;;;;;5073686;28;20293;-53
2021/03/08 11:42:49;;;;;;;7.37;4.90;;;;;;;;;;5073753;28;20269;-53
2021/03/08 11:45:17;;;;;;;6.33;3.13;;;;;;;;;;5073816;28;20262;-53
2021/03/08 11:47:44;;;;;;;3.50;2.33;;;;;;;;;;5073504;28;20256;-53
2021/03/08 11:50:12;;;;;;;4.40;2.73;;;;;;;;;;5073578;28;20265;-53
2021/03/08 11:52:39;;;;;;;4.50;2.47;;;;;;;;;;5073585;28;20257;-53
2021/03/08 11:55:06;;;;;;;4.90;2.50;;;;;;;;;;5073630;28;20257;-53
2021/03/08 11:57:32;;;;;;;5.57;3.10;;;;;;;;;;5073543;28;20605;-53
2021/03/08 11:59:59;;;;;;;8.40;3.33;;;;;;;;;;5073338;28;20617;-53
2021/03/08 12:02:26;;;;;;;6.43;2.33;;;;;;;;;;5073334;28;20341;-53
2021/03/08 12:04:53;;;;;;;9.20;4.03;;;;;;;;;;5073286;28;20285;-53
2021/03/08 12:07:20;;;;;;;5.63;3.33;;;;;;;;;;5073269;28;20351;-53
2021/03/08 12:09:46;;;;;;;9.90;3.17;;;;;;;;;;5073372;28;20257;-53
2021/03/08 12:12:13;;;;;;;6.17;3.47;;;;;;;;;;5073270;28;20308;-53
2021/03/08 12:14:40;;;;;;;4.87;3.13;;;;;;;;;;5073116;28;20272;-53
2021/03/08 12:17:07;;;;;;;9.23;3.20;;;;;;;;;;5073262;28;20257;-53
2021/03/08 12:19:34;;;;;;;9.03;3.03;;;;;;;;;;5073021;28;20300;-53
2021/03/08 12:22:00;;;;;;;7.67;3.90;;;;;;;;;;5073083;28;20265;-53
2021/03/08 12:24:27;;;;;;;5.30;2.87;;;;;;;;;;5073063;28;20260;-53
2021/03/08 12:26:54;;;;;;;5.57;2.97;;;;;;;;;;5073151;28;20323;-53
2021/03/08 12:29:21;;;;;;;7.80;2.70;;;;;;;;;;5073036;28;20341;-53
2021/03/08 12:31:47;;;;;;;6.20;3.17;;;;;;;;;;5072948;28;20680;-53
2021/03/08 12:34:14;;;;;;;6.87;2.87;;;;;;;;;;5072891;28;20662;-53
2021/03/08 12:36:41;;;;;;;6.90;3.33;;;;;;;;;;5072921;28;20742;-53
2021/03/08 12:39:08;;;;;;;7.00;3.40;;;;;;;;;;5072898;28;20307;-53
2021/03/08 12:41:34;;;;;;;6.53;3.83;;;;;;;;;;5072959;28;20261;-53
2021/03/08 12:44:01;;;;;;;5.67;2.90;;;;;;;;;;5072750;28;20254;-53
2021/03/08 12:46:28;;;;;;;5.93;3.30;;;;;;;;;;5073065;28;20265;-53
2021/03/08 12:48:55;;;;;;;8.40;2.87;;;;;;;;;;5072882;28;20617;-53
2021/03/08 12:51:25;;;;;;;15.07;3.20;;;;;;;;;;5072718;28;20253;-53
2021/03/08 12:53:52;;;;;;;9.17;3.23;;;;;;;;;;5072597;28;20729;-53
2021/03/08 12:56:19;;;;;;;4.50;2.70;;;;;;;;;;5072823;28;20261;-53
2021/03/08 12:58:45;;;;;;;7.30;3.40;;;;;;;;;;5072732;28;20406;-53
2021/03/08 13:01:12;;;;;;;5.97;2.90;;;;;;;;;;5076850;28;20296;-53
2021/03/08 13:03:39;;;;;;;9.63;3.03;;;;;;;;;;5076869;28;20315;-53
2021/03/08 13:06:06;;;;;;;11.00;3.23;;;;;;;;;;5076266;28;20356;-53
2021/03/08 13:08:34;;;;;;;8.43;3.07;;;;;;;;;;5076765;28;20265;-53
2021/03/08 13:11:01;;;;;;;4.67;2.73;;;;;;;;;;5076751;28;20695;-53
2021/03/08 13:13:28;;;;;;;5.23;3.03;;;;;;;;;;5076649;28;20257;-53
2021/03/08 13:15:55;;;;;;;10.00;2.77;;;;;;;;;;5076587;28;20329;-53
2021/03/08 13:18:22;;;;;;;4.07;2.40;;;;;;;;;;5076532;28;20268;-53
2021/03/08 13:20:48;;;;;;;4.00;2.57;;;;;;;;;;5076448;28;20304;-53
2021/03/08 13:23:16;;;;;;;5.13;2.67;;;;;;;;;;5076461;28;20249;-53
2021/03/08 13:25:43;;;;;;;6.80;3.50;;;;;;;;;;5076360;28;20264;-53
2021/03/08 13:28:10;;;;;;;6.83;3.37;;;;;;;;;;5076641;28;20573;-53
2021/03/08 13:30:38;;;;;;;5.13;3.00;;;;;;;;;;5076306;28;20264;-53
2021/03/08 13:33:05;;;;;;;8.57;3.13;;;;;;;;;;5076239;28;20261;-53
2021/03/08 13:35:32;;;;;;;14.47;3.47;;;;;;;;;;5076152;28;20715;-53
2021/03/08 13:37:59;;;;;;;7.27;3.17;;;;;;;;;;5076090;28;20379;-53
2021/03/08 13:40:25;;;;;;;9.50;3.93;;;;;;;;;;5075977;28;20856;-53
2021/03/08 13:42:52;;;;;;;7.53;3.13;;;;;;;;;;5076044;28;20607;-53
2021/03/08 13:45:19;;;;;;;12.50;3.30;;;;;;;;;;5076119;28;20747;-53
2021/03/08 13:47:46;;;;;;;6.20;2.97;;;;;;;;;;5076267;28;20242;-53
2021/03/08 13:50:13;;;;;;;6.63;2.90;;;;;;;;;;5076247;28;20681;-53
2021/03/08 13:52:40;;;;;;;6.17;3.10;;;;;;;;;;5075808;28;20607;-53
2021/03/08 13:55:07;;;;;;;7.93;3.73;;;;;;;;;;5075770;28;20336;-53
2021/03/08 13:57:34;;;;;;;9.67;3.57;;;;;;;;;;5075832;28;20237;-53
2021/03/08 14:00:01;;;;;;;8.13;3.03;;;;;;;;;;5075685;28;20289;-53
2021/03/08 14:02:27;;;;;;;8.77;3.50;;;;;;;;;;5075568;28;20260;-53
2021/03/08 14:04:55;;;;;;;6.17;3.00;;;;;;;;;;5075623;28;20599;-53
2021/03/08 14:07:22;;;;;;;6.43;2.77;;;;;;;;;;5075996;28;20372;-54
2021/03/08 14:09:49;;;;;;;6.13;2.23;;;;;;;;;;5075742;28;20249;-53
2021/03/08 14:12:15;;;;;;;4.40;2.40;;;;;;;;;;5075442;28;20245;-53
2021/03/08 14:14:43;;;;;;;6.30;2.50;;;;;;;;;;5075448;28;20250;-54
2021/03/08 14:17:10;;;;;;;6.10;2.57;;;;;;;;;;5075440;28;20739;-54
2021/03/08 14:19:37;;;;;;;4.57;2.90;;;;;;;;;;5075313;28;20697;-54
2021/03/08 14:22:04;;;;;;;7.00;2.63;;;;;;;;;;5075317;28;20748;-54
2021/03/08 14:24:30;;;;;;;3.70;2.20;;;;;;;;;;5075215;28;20048;-54
2021/03/08 14:26:58;;;;;;;3.30;2.10;;;;;;;;;;5075263;28;20024;-54
2021/03/08 14:29:24;;;;;;;5.10;2.80;;;;;;;;;;5075232;28;20016;-54
2021/03/08 14:31:51;;;;;;;4.77;2.40;;;;;;;;;;5075216;28;20391;-54
2021/03/08 14:34:18;;;;;;;9.90;2.27;;;;;;;;;;5075150;28;20020;-54
2021/03/08 14:36:45;;;;;;;4.97;2.53;;;;;;;;;;5075006;28;20086;-54
2021/03/08 14:39:12;;;;;;;6.00;2.90;;;;;;;;;;5075040;28;20028;-54
2021/03/08 14:41:38;;;;;;;4.13;2.40;;;;;;;;;;5074775;28;20518;-54
2021/03/08 14:44:05;;;;;;;4.33;2.50;;;;;;;;;;5074950;28;20036;-54
2021/03/08 14:46:32;;;;;;;5.60;3.33;;;;;;;;;;5074983;28;20024;-54
2021/03/08 14:49:00;;;;;;;6.23;2.17;;;;;;;;;;5074923;28;20024;-54
2021/03/08 14:51:27;;;;;;;4.07;2.03;;;;;;;;;;5074917;28;20052;-54
2021/03/08 14:53:54;;;;;;;6.17;2.57;;;;;;;;;;5074830;28;20020;-54